createdAt,value
2022-11-10T00:01:10.446Z,3.05
2022-11-10T00:03:38.261Z,2.47
2022-11-10T00:06:05.894Z,2.85
2022-11-10T00:08:33.117Z,2.55
2022-11-10T00:11:02.031Z,2.40
2022-11-10T00:16:15.312Z,2.35
2022-11-10T00:18:42.512Z,2.60
2022-11-10T00:21:10.522Z,2.42
2022-11-10T00:23:37.686Z,2.35
2022-11-10T00:26:05.117Z,3.40
2022-11-10T00:28:32.793Z,2.92
2022-11-10T00:31:00.144Z,2.55
2022-11-10T00:33:27.262Z,3.25
2022-11-10T00:35:54.760Z,2.65
2022-11-10T00:38:21.841Z,3.10
2022-11-10T00:40:49.023Z,2.75
2022-11-10T00:43:16.103Z,2.38
2022-11-10T00:45:44.342Z,2.60
2022-11-10T00:48:11.430Z,3.03
2022-11-10T00:50:38.575Z,2.50
2022-11-10T00:53:05.841Z,3.28
2022-11-10T00:55:33.074Z,2.67
2022-11-10T00:58:00.196Z,2.90
2022-11-10T01:00:27.271Z,5.10
2022-11-10T01:02:54.493Z,3.30
2022-11-10T01:05:22.171Z,2.45
2022-11-10T01:07:49.302Z,3.08
2022-11-10T01:10:16.636Z,2.65
2022-11-10T01:12:43.742Z,3.38
2022-11-10T01:15:10.911Z,3.17
2022-11-10T01:17:38.095Z,3.78
2022-11-10T01:20:08.377Z,3.03
2022-11-10T01:22:35.959Z,3.00
2022-11-10T01:25:03.264Z,2.60
2022-11-10T01:27:30.369Z,3.00
2022-11-10T01:29:57.440Z,2.22
2022-11-10T01:32:24.608Z,3.78
2022-11-10T01:34:51.723Z,2.95
2022-11-10T01:37:18.848Z,2.85
2022-11-10T01:39:45.992Z,3.03
2022-11-10T01:42:13.131Z,3.55
2022-11-10T01:44:41.371Z,2.65
2022-11-10T01:47:08.595Z,3.35
2022-11-10T01:49:36.019Z,3.35
2022-11-10T01:52:11.779Z,4.72
2022-11-10T01:54:41.343Z,3.65
2022-11-10T01:57:10.514Z,2.65
2022-11-10T01:59:41.008Z,3.72
2022-11-10T02:02:28.339Z,3.45
2022-11-10T02:04:55.978Z,3.30
2022-11-10T02:07:23.309Z,2.38
2022-11-10T02:09:50.424Z,2.88
2022-11-10T02:12:36.685Z,2.58
2022-11-10T02:15:04.671Z,3.83
2022-11-10T02:17:31.910Z,3.17
2022-11-10T02:20:04.543Z,3.45
2022-11-10T02:22:31.951Z,4.40
2022-11-10T02:24:59.183Z,3.28
2022-11-10T02:27:26.297Z,2.90
2022-11-10T02:29:53.626Z,3.38
2022-11-10T02:32:20.697Z,3.28
2022-11-10T02:34:47.808Z,3.58
2022-11-10T02:37:14.967Z,3.13
2022-11-10T02:39:42.071Z,3.38
2022-11-10T02:42:10.403Z,2.88
2022-11-10T02:44:41.004Z,4.25
2022-11-10T02:47:08.395Z,4.32
2022-11-10T02:49:35.497Z,4.05
2022-11-10T02:52:02.584Z,3.70
2022-11-10T02:54:29.647Z,3.83
2022-11-10T02:56:56.891Z,4.10
2022-11-10T02:59:24.056Z,3.92
2022-11-10T03:01:51.165Z,3.85
2022-11-10T03:04:18.237Z,3.70
2022-11-10T03:06:45.379Z,4.30
2022-11-10T03:09:12.549Z,4.00
2022-11-10T03:11:39.630Z,3.45
2022-11-10T03:14:06.747Z,4.00
2022-11-10T03:16:33.867Z,3.90
2022-11-10T03:19:00.922Z,3.53
2022-11-10T03:21:28.000Z,3.80
2022-11-10T03:23:55.109Z,4.25
2022-11-10T03:26:22.513Z,3.83
2022-11-10T03:28:49.716Z,3.05
2022-11-10T03:31:16.865Z,4.57
2022-11-10T03:33:43.961Z,4.07
2022-11-10T03:36:11.033Z,4.75
2022-11-10T03:38:38.166Z,4.72
2022-11-10T03:41:21.044Z,4.47
2022-11-10T03:43:48.894Z,3.72
2022-11-10T03:46:16.184Z,3.83
2022-11-10T03:48:46.243Z,4.50
2022-11-10T03:51:15.935Z,3.97
2022-11-10T03:53:43.036Z,4.47
2022-11-10T03:56:10.395Z,3.80
2022-11-10T03:58:37.503Z,4.18
2022-11-10T04:01:04.654Z,4.13
2022-11-10T04:03:31.768Z,3.78
2022-11-10T04:06:17.972Z,3.45
2022-11-10T04:09:00.138Z,3.88
2022-11-10T04:11:49.552Z,3.92
2022-11-10T04:14:35.864Z,3.50
2022-11-10T04:17:03.197Z,3.80
2022-11-10T04:19:30.465Z,3.97
2022-11-10T04:21:57.937Z,3.78
2022-11-10T04:24:25.075Z,3.97
2022-11-10T04:26:52.263Z,3.97
2022-11-10T04:29:20.340Z,3.72
2022-11-10T04:31:47.476Z,4.05
2022-11-10T04:34:15.331Z,3.63
2022-11-10T04:36:43.604Z,4.55
2022-11-10T04:39:11.360Z,4.28
2022-11-10T04:41:38.528Z,4.70
2022-11-10T04:44:06.098Z,4.65
2022-11-10T04:46:35.403Z,4.55
2022-11-10T04:49:02.821Z,4.28
2022-11-10T04:51:31.515Z,5.53
2022-11-10T04:53:58.684Z,4.82
2022-11-10T04:56:26.832Z,4.20
2022-11-10T04:58:54.352Z,5.18
2022-11-10T05:01:23.258Z,4.95
2022-11-10T05:03:51.131Z,3.80
2022-11-10T05:06:19.668Z,5.13
2022-11-10T05:08:47.466Z,4.45
2022-11-10T05:11:14.888Z,4.18
2022-11-10T05:13:42.378Z,4.90
2022-11-10T05:16:13.089Z,2.88
2022-11-10T05:18:40.246Z,4.20
2022-11-10T05:21:07.465Z,3.92
2022-11-10T05:23:37.852Z,4.55
2022-11-10T05:26:15.567Z,4.25
2022-11-10T05:28:43.660Z,4.22
2022-11-10T05:31:11.143Z,4.97
2022-11-10T05:33:38.910Z,3.70
2022-11-10T05:36:06.872Z,4.07
2022-11-10T05:38:36.563Z,4.20
2022-11-10T05:41:06.172Z,4.22
2022-11-10T05:43:33.279Z,4.07
2022-11-10T05:46:00.732Z,4.32
2022-11-10T05:48:27.819Z,3.65
2022-11-10T05:50:54.910Z,4.00
2022-11-10T05:53:22.383Z,3.97
2022-11-10T05:55:49.616Z,3.40
2022-11-10T05:58:16.749Z,4.30
2022-11-10T06:00:43.986Z,4.28
2022-11-10T06:03:15.373Z,4.28
2022-11-10T06:05:44.743Z,4.20
2022-11-10T06:08:12.153Z,5.20
2022-11-10T06:10:39.993Z,4.40
2022-11-10T06:13:07.170Z,4.72
2022-11-10T06:15:34.278Z,4.97
2022-11-10T06:18:01.385Z,4.15
2022-11-10T06:20:28.980Z,4.50
2022-11-10T06:23:00.057Z,4.35
2022-11-10T06:25:27.519Z,4.32
2022-11-10T06:27:54.761Z,4.05
2022-11-10T06:30:22.323Z,4.43
2022-11-10T06:32:49.559Z,4.20
2022-11-10T06:35:16.758Z,4.93
2022-11-10T06:37:43.892Z,4.22
2022-11-10T06:40:12.901Z,4.35
2022-11-10T06:42:40.285Z,3.90
2022-11-10T06:45:07.674Z,3.80
2022-11-10T06:47:34.806Z,4.05
2022-11-10T06:50:01.903Z,3.90
2022-11-10T06:52:29.131Z,3.92
2022-11-10T06:54:56.226Z,4.32
2022-11-10T06:57:23.353Z,3.85
2022-11-10T06:59:50.912Z,4.65
2022-11-10T07:02:18.017Z,4.18
2022-11-10T07:04:45.167Z,4.32
2022-11-10T07:07:12.853Z,3.97
2022-11-10T07:09:40.047Z,4.10
2022-11-10T07:12:07.253Z,4.15
2022-11-10T07:14:34.392Z,4.32
2022-11-10T07:17:01.531Z,3.97
2022-11-10T07:19:28.878Z,3.80
2022-11-10T07:21:56.010Z,3.88
2022-11-10T07:24:23.121Z,3.40
2022-11-10T07:26:50.251Z,3.10
2022-11-10T07:29:17.319Z,3.58
2022-11-10T07:31:44.740Z,3.22
2022-11-10T07:34:11.899Z,3.38
2022-11-10T07:36:39.015Z,3.03
2022-11-10T07:39:06.421Z,2.88
2022-11-10T07:41:33.516Z,3.50
2022-11-10T07:44:00.603Z,3.35
2022-11-10T07:46:27.682Z,3.50
2022-11-10T07:48:54.902Z,3.33
2022-11-10T07:51:22.217Z,3.10
2022-11-10T07:53:49.648Z,3.60
2022-11-10T07:56:16.732Z,2.92
2022-11-10T07:58:43.865Z,3.75
2022-11-10T08:01:10.955Z,2.90
2022-11-10T08:03:38.256Z,3.10
2022-11-10T08:06:05.418Z,3.13
2022-11-10T08:08:32.606Z,2.53
2022-11-10T08:10:59.824Z,2.75
2022-11-10T08:13:26.955Z,3.28
2022-11-10T08:15:54.462Z,2.80
2022-11-10T08:18:23.013Z,3.00
2022-11-10T08:20:50.367Z,2.83
2022-11-10T08:23:17.950Z,2.78
2022-11-10T08:25:46.840Z,2.75
2022-11-10T08:28:17.948Z,3.05
2022-11-10T08:31:05.316Z,2.70
2022-11-10T08:33:35.471Z,2.65
2022-11-10T08:36:02.897Z,3.10
2022-11-10T08:38:30.101Z,2.63
2022-11-10T08:40:57.942Z,2.67
2022-11-10T08:43:25.775Z,2.58
2022-11-10T08:45:59.671Z,2.90
2022-11-10T08:48:28.170Z,2.58
2022-11-10T08:50:55.429Z,2.55
2022-11-10T08:53:40.835Z,2.80
2022-11-10T08:56:08.445Z,2.72
2022-11-10T08:58:47.310Z,2.53
2022-11-10T09:01:17.505Z,2.85
2022-11-10T09:03:44.784Z,3.10
2022-11-10T09:06:12.009Z,3.20
2022-11-10T09:08:39.216Z,2.65
2022-11-10T09:11:06.616Z,2.60
2022-11-10T09:13:34.093Z,2.65
2022-11-10T09:16:02.940Z,2.38
2022-11-10T09:23:26.555Z,2.53
2022-11-10T09:25:54.804Z,2.50
2022-11-10T09:28:22.919Z,2.97
2022-11-10T09:33:34.881Z,2.10
2022-11-10T09:36:04.824Z,2.30
2022-11-10T09:38:33.305Z,2.55
2022-11-10T09:41:04.799Z,2.60
2022-11-10T09:43:38.939Z,2.42
2022-11-10T09:46:28.039Z,2.80
2022-11-10T09:49:00.407Z,2.67
2022-11-10T09:51:30.465Z,2.40
2022-11-10T09:53:58.947Z,2.40
2022-11-10T09:56:32.938Z,2.90
2022-11-10T09:59:00.716Z,3.28
2022-11-10T10:01:43.191Z,2.38
2022-11-10T10:04:22.120Z,2.10
2022-11-10T10:07:10.005Z,2.78
2022-11-10T10:09:56.445Z,2.33
2022-11-10T10:12:29.766Z,2.88
2022-11-10T10:15:15.291Z,2.50
2022-11-10T10:21:17.628Z,2.38
2022-11-10T10:24:11.301Z,2.20
2022-11-10T10:26:51.706Z,2.35
2022-11-10T10:29:38.141Z,2.45
2022-11-10T10:32:05.363Z,2.30
2022-11-10T10:34:37.529Z,2.22
2022-11-10T10:37:05.936Z,2.00
2022-11-10T10:39:40.098Z,2.33
2022-11-10T10:42:16.001Z,2.22
2022-11-10T10:45:03.376Z,2.30
2022-11-10T10:47:37.545Z,2.03
2022-11-10T10:50:26.312Z,2.20
2022-11-10T10:53:11.927Z,2.08
2022-11-10T10:55:48.966Z,2.10
2022-11-10T10:58:25.309Z,2.20
2022-11-10T11:00:59.946Z,3.50
2022-11-10T11:03:37.878Z,2.28
2022-11-10T11:06:06.957Z,2.33
2022-11-10T11:08:34.129Z,1.98
2022-11-10T11:11:08.301Z,2.95
2022-11-10T11:13:35.804Z,2.63
2022-11-10T11:16:07.898Z,2.72
2022-11-10T11:18:36.250Z,2.15
2022-11-10T11:21:12.468Z,2.33
2022-11-10T11:23:58.209Z,1.88
2022-11-10T11:26:45.541Z,2.30
2022-11-10T11:29:31.048Z,2.70
2022-11-10T11:32:17.544Z,2.15
2022-11-10T11:35:06.634Z,2.53
2022-11-10T11:37:41.088Z,2.88
2022-11-10T11:40:27.000Z,2.50
2022-11-10T11:43:01.145Z,2.28
2022-11-10T11:45:34.364Z,2.65
2022-11-10T11:48:22.373Z,2.30
2022-11-10T11:50:52.731Z,1.85
2022-11-10T11:53:40.409Z,2.15
2022-11-10T11:56:27.808Z,2.58
2022-11-10T11:58:58.046Z,2.67
2022-11-10T12:01:43.835Z,2.28
2022-11-10T12:04:24.138Z,2.10
2022-11-10T12:07:17.183Z,2.10
2022-11-10T12:09:52.836Z,2.50
2022-11-10T12:12:45.284Z,2.05
2022-11-10T12:15:35.861Z,2.42
2022-11-10T12:18:07.953Z,1.75
2022-11-10T12:20:50.751Z,1.77
2022-11-10T12:23:39.391Z,1.52
2022-11-10T12:26:29.567Z,2.03
2022-11-10T12:29:01.896Z,2.22
2022-11-10T12:31:30.704Z,2.13
2022-11-10T12:34:03.737Z,2.95
2022-11-10T12:36:33.680Z,1.80
2022-11-10T12:39:27.564Z,2.00
2022-11-10T12:42:00.745Z,2.13
2022-11-10T12:44:31.312Z,1.50
2022-11-10T12:47:02.072Z,1.80
2022-11-10T12:49:31.897Z,2.13
2022-11-10T12:52:20.453Z,1.70
2022-11-10T12:54:47.979Z,2.22
2022-11-10T12:57:18.574Z,1.60
2022-11-10T13:00:28.892Z,1.80
2022-11-10T13:02:59.535Z,1.92
2022-11-10T13:05:33.918Z,1.73
2022-11-10T13:08:22.486Z,1.65
2022-11-10T13:10:55.402Z,2.30
2022-11-10T13:13:23.164Z,1.92
2022-11-10T13:15:52.213Z,2.00
2022-11-10T13:21:19.291Z,1.70
2022-11-10T13:23:49.597Z,1.77
2022-11-10T13:26:35.569Z,1.60
2022-11-10T13:29:03.752Z,1.70
2022-11-10T13:31:31.157Z,1.65
2022-11-10T13:34:07.384Z,1.55
2022-11-10T13:36:45.816Z,1.73
2022-11-10T13:39:17.540Z,1.58
2022-11-10T13:41:48.551Z,1.85
2022-11-10T13:44:27.392Z,1.88
2022-11-10T13:47:09.662Z,1.40
2022-11-10T13:49:55.357Z,1.70
2022-11-10T13:52:28.938Z,2.53
2022-11-10T13:55:15.972Z,1.50
2022-11-10T13:57:56.411Z,1.80
2022-11-10T14:00:32.046Z,2.13
2022-11-10T14:03:05.976Z,1.90
2022-11-10T14:05:38.192Z,1.60
2022-11-10T14:08:16.477Z,1.73
2022-11-10T14:10:48.113Z,2.10
2022-11-10T14:13:18.278Z,1.73
2022-11-10T14:15:46.383Z,1.55
2022-11-10T14:18:22.738Z,1.70
2022-11-10T14:20:55.133Z,1.65
2022-11-10T14:23:26.495Z,2.40
2022-11-10T14:25:56.608Z,1.70
2022-11-10T14:28:28.184Z,1.80
2022-11-10T14:30:57.236Z,1.52
2022-11-10T14:33:25.130Z,2.22
2022-11-10T14:36:12.312Z,1.95
2022-11-10T14:38:44.231Z,1.85
2022-11-10T14:41:16.924Z,1.40
2022-11-10T14:43:44.182Z,1.60
2022-11-10T14:46:15.346Z,1.90
2022-11-10T14:48:42.496Z,2.05
2022-11-10T14:51:13.503Z,1.35
2022-11-10T14:53:42.152Z,1.73
2022-11-10T14:56:15.549Z,1.75
2022-11-10T14:58:43.474Z,1.80
2022-11-10T15:01:33.582Z,1.90
2022-11-10T15:04:04.861Z,1.50
2022-11-10T15:06:32.477Z,1.70
2022-11-10T15:30:28.300Z,1.88
2022-11-10T15:33:00.911Z,1.88
2022-11-10T15:35:30.870Z,2.33
2022-11-10T15:38:05.633Z,2.08
2022-11-10T15:45:29.918Z,1.60
2022-11-10T15:47:57.181Z,1.75
2022-11-10T15:50:24.382Z,3.03
2022-11-10T15:52:51.477Z,1.83
2022-11-10T15:55:22.293Z,1.42
2022-11-10T15:57:49.447Z,1.60
2022-11-10T16:00:16.627Z,1.63
2022-11-10T16:02:43.805Z,1.73
2022-11-10T16:05:14.241Z,1.98
2022-11-10T16:07:42.251Z,2.03
2022-11-10T16:10:09.427Z,2.70
2022-11-10T16:12:36.807Z,2.45
2022-11-10T16:15:03.958Z,2.05
2022-11-10T16:17:31.100Z,1.60
2022-11-10T16:19:58.222Z,2.25
2022-11-10T16:22:25.297Z,2.05
2022-11-10T16:24:52.428Z,1.98
2022-11-10T16:27:19.530Z,1.88
2022-11-10T16:29:46.659Z,2.10
2022-11-10T16:32:14.084Z,2.08
2022-11-10T16:34:41.420Z,2.30
2022-11-10T16:37:11.115Z,2.15
2022-11-10T16:39:39.288Z,2.92
2022-11-10T16:42:06.586Z,3.03
2022-11-10T16:44:33.747Z,2.65
2022-11-10T16:47:02.052Z,2.80
2022-11-10T16:49:32.935Z,3.08
2022-11-10T16:52:03.574Z,3.67
2022-11-10T16:54:30.748Z,3.03
2022-11-10T16:56:57.983Z,2.83
2022-11-10T16:59:25.175Z,2.60
2022-11-10T17:01:53.571Z,3.10
2022-11-10T17:04:20.736Z,2.83
2022-11-10T17:06:47.903Z,3.70
2022-11-10T17:09:22.852Z,3.20
2022-11-10T17:11:50.321Z,2.78
2022-11-10T17:14:18.333Z,2.20
2022-11-10T17:16:46.571Z,2.30
2022-11-10T17:19:19.163Z,2.60
2022-11-10T17:21:47.652Z,2.90
2022-11-10T17:24:15.696Z,2.50
2022-11-10T17:26:43.243Z,2.67
2022-11-10T17:29:17.744Z,2.67
2022-11-10T17:31:45.407Z,2.80
2022-11-10T17:34:12.595Z,2.60
2022-11-10T17:36:40.374Z,2.55
2022-11-10T17:39:07.638Z,3.22
2022-11-10T17:41:34.912Z,3.03
2022-11-10T17:44:02.200Z,4.00
2022-11-10T17:46:29.282Z,3.38
2022-11-10T17:49:01.616Z,3.35
2022-11-10T17:51:32.647Z,3.08
2022-11-10T17:54:04.005Z,3.30
2022-11-10T17:56:31.589Z,2.72
2022-11-10T17:58:58.794Z,2.88
2022-11-10T18:01:26.296Z,2.20
2022-11-10T18:03:53.429Z,2.33
2022-11-10T18:06:21.236Z,2.40
2022-11-10T18:08:48.718Z,2.90
2022-11-10T18:11:18.768Z,2.78
2022-11-10T18:13:46.255Z,3.08
2022-11-10T18:16:16.708Z,3.30
2022-11-10T18:18:44.032Z,3.40
2022-11-10T18:21:12.292Z,3.10
2022-11-10T18:23:39.555Z,2.40
2022-11-10T18:26:11.685Z,3.10
2022-11-10T18:28:39.887Z,2.40
2022-11-10T18:31:08.180Z,2.08
2022-11-10T18:33:35.988Z,2.97
2022-11-10T18:36:03.197Z,2.28
2022-11-10T18:38:30.458Z,2.30
2022-11-10T18:41:17.656Z,3.05
2022-11-10T18:43:44.825Z,2.05
2022-11-10T18:46:12.058Z,2.00
2022-11-10T18:48:39.342Z,2.03
2022-11-10T18:51:06.649Z,1.90
2022-11-10T18:53:38.012Z,2.08
2022-11-10T18:56:05.809Z,1.88
2022-11-10T18:58:32.931Z,2.00
2022-11-10T19:01:06.979Z,2.17
2022-11-10T19:03:35.292Z,1.80
2022-11-10T19:06:02.468Z,2.25
2022-11-10T19:08:30.086Z,2.10
2022-11-10T19:10:57.698Z,2.08
2022-11-10T19:13:25.356Z,2.33
2022-11-10T19:15:53.397Z,2.22
2022-11-10T19:18:20.597Z,2.38
2022-11-10T19:20:47.707Z,2.28
2022-11-10T19:23:15.078Z,1.95
2022-11-10T19:25:42.512Z,1.80
2022-11-10T19:28:11.667Z,2.33
2022-11-10T19:30:41.299Z,2.20
2022-11-10T19:33:08.452Z,2.53
2022-11-10T19:35:41.033Z,2.70
2022-11-10T19:38:08.177Z,2.75
2022-11-10T19:40:38.935Z,2.50
2022-11-10T19:43:06.367Z,2.30
2022-11-10T19:45:34.750Z,2.58
2022-11-10T19:48:01.937Z,2.50
2022-11-10T19:50:29.072Z,2.85
2022-11-10T19:52:56.199Z,2.80
2022-11-10T19:55:23.343Z,2.50
2022-11-10T19:57:50.502Z,2.55
2022-11-10T20:00:17.831Z,2.70
2022-11-10T20:02:45.822Z,2.42
2022-11-10T20:05:16.552Z,2.65
2022-11-10T20:08:06.333Z,3.28
2022-11-10T20:10:37.139Z,3.42
2022-11-10T20:13:04.382Z,2.92
2022-11-10T20:15:31.669Z,3.75
2022-11-10T20:17:58.985Z,2.63
2022-11-10T20:20:26.206Z,3.00
2022-11-10T20:22:53.436Z,3.15
2022-11-10T20:25:20.700Z,3.38
2022-11-10T20:27:47.960Z,2.63
2022-11-10T20:30:15.988Z,3.65
2022-11-10T20:32:45.921Z,2.92
2022-11-10T20:39:02.040Z,2.92
2022-11-10T20:44:40.504Z,3.10
2022-11-10T20:47:07.903Z,3.03
2022-11-10T20:49:35.377Z,3.53
2022-11-10T20:52:03.468Z,3.95
2022-11-10T20:54:30.893Z,3.58
2022-11-10T20:56:58.151Z,3.40
2022-11-10T20:59:25.449Z,3.33
2022-11-10T21:01:52.925Z,3.53
2022-11-10T21:04:20.141Z,2.95
2022-11-10T21:06:47.655Z,3.55
2022-11-10T21:09:14.980Z,3.40
2022-11-10T21:12:00.872Z,3.90
2022-11-10T21:14:28.048Z,4.20
2022-11-10T21:16:57.007Z,3.80
2022-11-10T21:19:24.160Z,4.22
2022-11-10T21:21:52.355Z,3.90
2022-11-10T21:24:19.759Z,3.80
2022-11-10T21:26:46.904Z,3.80
2022-11-10T21:29:14.329Z,3.80
2022-11-10T21:31:41.859Z,3.97
2022-11-10T21:34:09.014Z,4.05
2022-11-10T21:36:36.281Z,4.05
2022-11-10T21:39:03.403Z,4.32
2022-11-10T21:41:30.554Z,4.60
2022-11-10T21:43:57.811Z,4.28
2022-11-10T21:46:25.062Z,3.88
2022-11-10T21:48:52.350Z,4.63
2022-11-10T21:54:41.973Z,4.75
2022-11-10T21:57:09.096Z,4.18
2022-11-10T21:59:36.453Z,5.15
2022-11-10T22:02:03.623Z,5.55
2022-11-10T22:04:30.797Z,5.15
2022-11-10T22:07:16.340Z,4.95
2022-11-10T22:10:02.240Z,4.30
2022-11-10T22:12:48.147Z,4.97
2022-11-10T22:15:34.131Z,4.80
2022-11-10T22:18:20.406Z,4.57
2022-11-10T22:20:47.528Z,4.95
2022-11-10T22:23:14.702Z,6.03
2022-11-10T22:25:42.196Z,4.63
2022-11-10T22:28:09.296Z,5.32
2022-11-10T22:30:37.693Z,4.75
2022-11-10T22:33:25.229Z,4.85
2022-11-10T22:35:57.349Z,4.80
2022-11-10T22:38:25.436Z,5.90
2022-11-10T22:41:10.932Z,4.97
2022-11-10T22:43:57.154Z,5.68
2022-11-10T22:46:24.271Z,4.75
2022-11-10T22:48:51.337Z,5.50
2022-11-10T22:51:18.678Z,4.63
2022-11-10T22:53:48.096Z,5.47
2022-11-10T22:56:15.486Z,4.05
2022-11-10T22:58:42.632Z,5.60
2022-11-10T23:01:10.898Z,5.07
2022-11-10T23:03:38.514Z,5.63
2022-11-10T23:06:06.135Z,5.65
2022-11-10T23:08:33.522Z,5.38
2022-11-10T23:11:01.765Z,4.57
2022-11-10T23:13:29.373Z,5.75
2022-11-10T23:16:02.046Z,5.25
2022-11-10T23:18:29.284Z,5.07
2022-11-10T23:20:57.197Z,5.85
2022-11-10T23:23:24.835Z,5.18
2022-11-10T23:25:59.017Z,5.40
2022-11-10T23:28:27.249Z,5.82
2022-11-10T23:30:54.493Z,6.20
2022-11-10T23:33:22.462Z,5.45
2022-11-10T23:35:50.116Z,5.40
2022-11-10T23:38:17.211Z,5.63
2022-11-10T23:40:44.300Z,5.68
2022-11-10T23:43:11.416Z,5.85
2022-11-10T23:46:05.416Z,6.50
2022-11-10T23:48:25.745Z,5.47
2022-11-10T23:50:53.835Z,5.85
2022-11-10T23:53:21.164Z,5.97
2022-11-10T23:55:56.662Z,6.15
2022-11-10T23:58:23.855Z,5.35
